createdAt,value
2019-03-27T00:03:18.066Z,75.30
2019-03-27T00:07:27.943Z,75.40
2019-03-27T00:11:37.592Z,75.70
2019-03-27T00:15:47.243Z,75.80
2019-03-27T00:19:56.890Z,76.10
2019-03-27T00:24:06.883Z,76.30
2019-03-27T00:28:16.630Z,76.50
2019-03-27T00:32:26.682Z,76.70
2019-03-27T00:36:36.083Z,77.00
2019-03-27T00:40:45.698Z,77.40
2019-03-27T00:44:55.631Z,77.70
2019-03-27T00:49:05.039Z,77.90
2019-03-27T00:53:14.363Z,78.80
2019-03-27T00:57:23.967Z,78.10
2019-03-27T01:01:33.625Z,78.70
2019-03-27T01:05:43.010Z,79.10
2019-03-27T01:09:52.735Z,79.00
2019-03-27T01:14:02.126Z,79.20
2019-03-27T01:18:11.446Z,79.30
2019-03-27T01:22:20.783Z,79.30
2019-03-27T01:26:30.402Z,79.70
2019-03-27T01:30:39.732Z,79.90
2019-03-27T01:34:49.605Z,80.10
2019-03-27T01:38:58.935Z,80.30
2019-03-27T01:43:08.259Z,80.30
2019-03-27T01:47:17.935Z,80.40
2019-03-27T01:51:27.238Z,81.00
2019-03-27T01:55:36.579Z,81.30
2019-03-27T01:59:46.711Z,81.50
2019-03-27T02:03:56.023Z,81.90
2019-03-27T02:08:05.427Z,81.90
2019-03-27T02:12:15.147Z,82.00
2019-03-27T02:16:25.091Z,82.00
2019-03-27T02:20:34.403Z,82.40
2019-03-27T02:24:43.711Z,82.70
2019-03-27T02:28:53.022Z,82.90
2019-03-27T02:33:02.681Z,83.10
2019-03-27T02:37:12.226Z,82.90
2019-03-27T02:41:21.535Z,83.00
2019-03-27T02:45:30.924Z,82.90
2019-03-27T02:49:41.076Z,83.10
2019-03-27T02:53:50.401Z,82.90
2019-03-27T02:57:59.714Z,82.80
2019-03-27T03:02:09.189Z,83.00
2019-03-27T03:06:18.502Z,83.10
2019-03-27T03:10:27.903Z,83.10
2019-03-27T03:14:37.217Z,83.10
2019-03-27T03:18:46.787Z,82.90
2019-03-27T03:22:56.091Z,82.80
2019-03-27T03:27:05.787Z,82.90
2019-03-27T03:31:15.182Z,83.00
2019-03-27T03:35:24.784Z,83.00
2019-03-27T03:39:34.086Z,83.20
2019-03-27T03:43:43.680Z,83.00
2019-03-27T03:47:53.328Z,83.00
2019-03-27T03:52:03.210Z,83.00
2019-03-27T03:56:14.074Z,83.10
2019-03-27T04:00:23.460Z,83.30
2019-03-27T04:04:34.921Z,83.40
2019-03-27T04:08:44.243Z,83.50
2019-03-27T04:12:53.563Z,83.40
2019-03-27T04:17:16.098Z,83.20
2019-03-27T04:21:14.542Z,83.30
2019-03-27T04:25:24.190Z,83.40
2019-03-27T04:29:33.487Z,83.90
2019-03-27T04:33:43.044Z,83.90
2019-03-27T04:37:52.678Z,83.90
2019-03-27T04:42:01.976Z,83.80
2019-03-27T04:46:11.288Z,83.70
2019-03-27T04:50:20.867Z,83.70
2019-03-27T04:54:30.443Z,83.60
2019-03-27T04:58:39.755Z,83.70
2019-03-27T05:02:49.075Z,83.90
2019-03-27T05:06:58.382Z,84.20
2019-03-27T05:11:07.694Z,84.20
2019-03-27T05:15:17.070Z,84.20
2019-03-27T05:19:26.388Z,83.90
2019-03-27T05:23:35.694Z,84.00
2019-03-27T05:27:45.006Z,83.80
2019-03-27T05:31:54.338Z,83.70
2019-03-27T05:36:03.646Z,83.50
2019-03-27T05:40:13.118Z,83.10
2019-03-27T05:44:22.428Z,83.10
2019-03-27T05:48:32.126Z,83.10
2019-03-27T05:52:41.806Z,83.00
2019-03-27T05:56:51.813Z,82.70
2019-03-27T06:01:01.355Z,82.60
2019-03-27T06:05:11.069Z,82.50
2019-03-27T06:09:20.662Z,82.40
2019-03-27T06:13:29.982Z,82.10
2019-03-27T06:17:39.574Z,82.00
2019-03-27T06:21:48.903Z,81.70
2019-03-27T06:25:58.211Z,81.40
2019-03-27T06:30:08.696Z,81.10
2019-03-27T06:34:17.999Z,81.10
2019-03-27T06:38:27.305Z,80.80
2019-03-27T06:42:36.605Z,80.60
2019-03-27T06:46:45.906Z,79.90
2019-03-27T06:50:55.218Z,79.70
2019-03-27T06:55:05.287Z,79.40
2019-03-27T06:59:14.878Z,79.30
2019-03-27T07:03:24.191Z,79.00
2019-03-27T07:07:33.738Z,78.80
2019-03-27T07:11:43.125Z,78.30
2019-03-27T07:15:52.465Z,77.70
2019-03-27T07:20:01.954Z,77.30
2019-03-27T07:24:11.267Z,76.70
2019-03-27T07:28:20.581Z,76.20
2019-03-27T07:32:29.888Z,75.80
2019-03-27T07:36:39.450Z,74.90
2019-03-27T07:40:49.416Z,74.30
2019-03-27T07:44:58.729Z,73.70
2019-03-27T07:49:08.042Z,72.90
2019-03-27T07:53:17.506Z,72.20
2019-03-27T07:57:26.823Z,71.90
2019-03-27T08:01:36.466Z,71.40
2019-03-27T08:05:46.067Z,71.30
2019-03-27T08:09:55.743Z,71.20
2019-03-27T08:14:05.086Z,70.90
2019-03-27T08:18:14.391Z,71.30
2019-03-27T08:22:23.698Z,71.20
2019-03-27T08:26:33.330Z,71.10
2019-03-27T08:30:42.645Z,69.90
2019-03-27T08:34:52.214Z,70.30
2019-03-27T08:39:01.540Z,70.80
2019-03-27T08:43:21.067Z,70.80
2019-03-27T08:47:21.897Z,69.00
2019-03-27T08:51:31.277Z,63.50
2019-03-27T08:55:40.915Z,61.10
2019-03-27T08:59:50.909Z,58.60
2019-03-27T09:04:00.227Z,57.10
2019-03-27T09:08:09.943Z,58.50
2019-03-27T09:12:19.331Z,59.70
2019-03-27T09:16:28.652Z,59.90
2019-03-27T09:20:37.968Z,59.90
2019-03-27T09:24:47.552Z,59.30
2019-03-27T09:28:57.488Z,58.40
2019-03-27T09:33:06.918Z,57.10
2019-03-27T09:37:16.315Z,54.90
2019-03-27T09:41:25.622Z,52.70
2019-03-27T09:45:35.283Z,52.80
2019-03-27T09:49:49.841Z,53.20
2019-03-27T09:53:56.099Z,52.90
2019-03-27T09:58:05.559Z,51.80
2019-03-27T10:02:14.866Z,52.40
2019-03-27T10:06:24.554Z,52.90
2019-03-27T10:10:33.970Z,53.30
2019-03-27T10:14:43.294Z,52.80
2019-03-27T10:18:53.014Z,52.40
2019-03-27T10:23:02.337Z,51.70
2019-03-27T10:27:11.658Z,51.40
2019-03-27T10:31:21.162Z,51.40
2019-03-27T10:35:30.470Z,50.40
2019-03-27T10:39:40.136Z,49.90
2019-03-27T10:43:49.455Z,48.00
2019-03-27T10:47:58.782Z,49.70
2019-03-27T10:52:08.111Z,50.80
2019-03-27T10:56:18.014Z,50.30
2019-03-27T11:00:27.343Z,50.50
2019-03-27T11:04:36.655Z,48.10
2019-03-27T11:08:45.978Z,47.30
2019-03-27T11:12:55.307Z,46.00
2019-03-27T11:17:05.851Z,45.20
2019-03-27T11:21:15.164Z,44.40
2019-03-27T11:25:24.638Z,43.90
2019-03-27T11:29:34.039Z,44.80
2019-03-27T11:33:43.388Z,45.50
2019-03-27T11:37:53.302Z,44.20
2019-03-27T11:42:02.951Z,44.60
2019-03-27T11:46:12.271Z,46.00
2019-03-27T11:50:21.955Z,46.00
2019-03-27T11:54:31.274Z,46.40
2019-03-27T11:58:41.359Z,47.00
2019-03-27T12:02:51.028Z,47.50
2019-03-27T12:07:00.345Z,47.70
2019-03-27T12:11:10.066Z,47.20
2019-03-27T12:15:36.435Z,47.50
2019-03-27T12:19:45.754Z,47.30
2019-03-27T12:23:55.788Z,46.60
2019-03-27T12:28:05.336Z,46.40
2019-03-27T12:32:14.963Z,46.50
2019-03-27T12:36:24.327Z,46.00
2019-03-27T12:40:34.547Z,46.30
2019-03-27T12:44:44.127Z,46.60
2019-03-27T12:48:53.430Z,46.50
2019-03-27T12:53:02.823Z,45.80
2019-03-27T12:57:12.121Z,44.50
2019-03-27T13:01:21.528Z,43.30
2019-03-27T13:05:30.872Z,44.20
2019-03-27T13:09:40.183Z,45.00
2019-03-27T13:13:49.858Z,47.00
2019-03-27T13:17:59.305Z,45.60
2019-03-27T13:22:08.598Z,44.80
2019-03-27T13:26:18.205Z,45.10
2019-03-27T13:30:27.926Z,45.20
2019-03-27T13:34:37.247Z,45.00
2019-03-27T13:38:46.883Z,43.90
2019-03-27T13:42:56.584Z,43.20
2019-03-27T13:47:05.999Z,41.90
2019-03-27T13:51:15.883Z,40.10
2019-03-27T13:55:25.191Z,41.70
2019-03-27T13:59:34.514Z,42.50
2019-03-27T14:03:44.221Z,43.10
2019-03-27T14:07:53.549Z,44.00
2019-03-27T14:12:03.215Z,43.80
2019-03-27T14:16:12.627Z,43.20
2019-03-27T14:20:22.421Z,43.00
2019-03-27T14:24:31.813Z,41.60
2019-03-27T14:28:41.139Z,42.40
2019-03-27T14:32:50.482Z,42.90
2019-03-27T14:36:59.802Z,42.90
2019-03-27T14:41:09.271Z,42.80
2019-03-27T14:45:18.583Z,42.40
2019-03-27T14:49:27.899Z,43.20
2019-03-27T14:53:37.994Z,42.20
2019-03-27T14:57:47.570Z,42.10
2019-03-27T15:01:57.155Z,43.00
2019-03-27T15:06:07.211Z,43.60
2019-03-27T15:10:17.075Z,43.10
2019-03-27T15:14:27.363Z,42.70
2019-03-27T15:18:37.183Z,41.80
2019-03-27T15:22:46.498Z,41.80
2019-03-27T15:26:56.156Z,41.20
2019-03-27T15:31:19.476Z,40.70
2019-03-27T15:35:16.747Z,42.00
2019-03-27T15:39:26.316Z,43.00
2019-03-27T15:43:35.627Z,44.70
2019-03-27T15:47:44.947Z,45.30
2019-03-27T15:51:54.513Z,45.80
2019-03-27T15:56:04.098Z,45.40
2019-03-27T16:00:14.571Z,46.00
2019-03-27T16:04:23.974Z,46.10
2019-03-27T16:08:33.274Z,46.10
2019-03-27T16:12:43.420Z,46.90
2019-03-27T16:17:11.827Z,47.70
2019-03-27T16:21:03.820Z,47.70
2019-03-27T16:25:13.410Z,47.70
2019-03-27T16:29:22.788Z,47.70
2019-03-27T16:33:32.395Z,48.20
2019-03-27T16:37:42.159Z,47.40
2019-03-27T16:41:51.479Z,47.20
2019-03-27T16:46:01.143Z,46.80
2019-03-27T16:50:10.730Z,46.90
2019-03-27T16:54:20.054Z,47.60
2019-03-27T16:58:29.383Z,48.00
2019-03-27T17:02:38.686Z,48.10
2019-03-27T17:06:48.004Z,48.50
2019-03-27T17:10:57.334Z,48.80
2019-03-27T17:15:07.037Z,49.70
2019-03-27T17:19:16.622Z,49.30
2019-03-27T17:23:25.958Z,49.00
2019-03-27T17:27:35.612Z,48.80
2019-03-27T17:31:45.311Z,49.10
2019-03-27T17:35:55.016Z,49.50
2019-03-27T17:40:05.075Z,50.00
2019-03-27T17:44:14.402Z,50.20
2019-03-27T17:48:23.773Z,50.90
2019-03-27T17:52:33.419Z,52.00
2019-03-27T17:56:43.070Z,52.20
2019-03-27T18:00:55.486Z,52.70
2019-03-27T18:05:05.522Z,53.30
2019-03-27T18:09:14.847Z,53.90
2019-03-27T18:13:24.266Z,54.70
2019-03-27T18:17:33.658Z,55.70
2019-03-27T18:21:43.335Z,55.70
2019-03-27T18:25:52.755Z,56.10
2019-03-27T18:30:02.061Z,56.80
2019-03-27T18:34:11.669Z,57.90
2019-03-27T18:38:21.116Z,58.00
2019-03-27T18:42:30.774Z,58.70
2019-03-27T18:46:40.430Z,59.20
2019-03-27T18:50:50.627Z,59.40
2019-03-27T18:55:00.452Z,59.80
2019-03-27T18:59:09.834Z,60.10
2019-03-27T19:03:19.523Z,60.50
2019-03-27T19:07:29.517Z,61.10
2019-03-27T19:11:38.834Z,61.50
2019-03-27T19:15:48.520Z,62.30
2019-03-27T19:19:57.830Z,62.70
2019-03-27T19:24:13.519Z,63.10
2019-03-27T19:28:18.178Z,63.60
2019-03-27T19:32:27.486Z,64.20
2019-03-27T19:36:36.795Z,64.40
2019-03-27T19:40:46.415Z,64.90
2019-03-27T19:44:55.726Z,65.30
2019-03-27T19:49:05.198Z,65.80
2019-03-27T19:53:14.518Z,66.30
2019-03-27T19:57:24.219Z,66.30
2019-03-27T20:01:33.848Z,66.80
2019-03-27T20:05:43.236Z,67.20
2019-03-27T20:09:52.571Z,67.30
2019-03-27T20:14:01.902Z,67.60
2019-03-27T20:18:11.220Z,68.90
2019-03-27T20:22:20.532Z,68.50
2019-03-27T20:26:29.825Z,68.50
2019-03-27T20:30:39.214Z,68.70
2019-03-27T20:34:48.834Z,69.10
2019-03-27T20:38:58.462Z,69.20
2019-03-27T20:43:08.519Z,69.40
2019-03-27T20:47:18.190Z,69.70
2019-03-27T20:51:27.745Z,70.10
2019-03-27T20:55:37.082Z,70.20
2019-03-27T20:59:46.440Z,70.40
2019-03-27T21:03:55.931Z,70.50
2019-03-27T21:08:05.321Z,70.60
2019-03-27T21:12:14.959Z,70.80
2019-03-27T21:16:24.383Z,71.10
2019-03-27T21:20:33.974Z,71.40
2019-03-27T21:24:43.608Z,71.50
2019-03-27T21:28:53.253Z,72.00
2019-03-27T21:33:02.919Z,72.00
2019-03-27T21:37:12.759Z,72.10
2019-03-27T21:41:22.583Z,72.30
2019-03-27T21:45:32.341Z,72.50
2019-03-27T21:49:41.893Z,72.70
2019-03-27T21:53:51.309Z,73.80
2019-03-27T21:58:01.230Z,72.90
2019-03-27T22:02:11.150Z,73.20
2019-03-27T22:06:20.462Z,73.50
2019-03-27T22:10:30.231Z,73.60
2019-03-27T22:14:39.578Z,73.70
2019-03-27T22:18:48.974Z,73.80
2019-03-27T22:22:58.299Z,73.90
2019-03-27T22:27:07.616Z,74.10
2019-03-27T22:31:17.088Z,74.20
2019-03-27T22:35:26.521Z,74.30
2019-03-27T22:39:35.846Z,74.30
2019-03-27T22:43:45.406Z,74.60
2019-03-27T22:47:54.768Z,74.80
2019-03-27T22:52:04.279Z,74.70
2019-03-27T22:56:14.093Z,74.80
2019-03-27T23:00:32.027Z,75.40
2019-03-27T23:04:41.629Z,75.50
2019-03-27T23:08:50.939Z,75.40
2019-03-27T23:13:00.263Z,75.70
2019-03-27T23:17:09.726Z,75.70
2019-03-27T23:21:19.046Z,75.90
2019-03-27T23:25:28.579Z,76.10
2019-03-27T23:29:37.894Z,76.10
2019-03-27T23:33:47.446Z,76.30
2019-03-27T23:37:56.757Z,76.70
2019-03-27T23:42:06.066Z,77.50
2019-03-27T23:46:15.369Z,77.30
2019-03-27T23:50:25.176Z,77.20
2019-03-27T23:54:34.564Z,77.40
2019-03-27T23:58:44.350Z,77.30
